createdAt,value
2022-11-24T00:02:28.539Z,76
2022-11-24T00:04:59.080Z,76
2022-11-24T00:07:30.137Z,76
2022-11-24T00:10:00.722Z,76
2022-11-24T00:12:31.628Z,77
2022-11-24T00:15:03.579Z,77
2022-11-24T00:17:34.404Z,77
2022-11-24T00:20:06.174Z,76
2022-11-24T00:22:45.326Z,76
2022-11-24T00:25:16.353Z,76
2022-11-24T00:27:47.019Z,76
2022-11-24T00:30:18.264Z,76
2022-11-24T00:32:49.930Z,76
2022-11-24T00:35:20.574Z,76
2022-11-24T00:37:53.003Z,76
2022-11-24T00:40:23.549Z,76
2022-11-24T00:42:53.841Z,76
2022-11-24T00:45:23.894Z,76
2022-11-24T00:47:54.586Z,76
2022-11-24T00:50:29.635Z,76
2022-11-24T00:53:00.851Z,76
2022-11-24T00:55:31.737Z,76
2022-11-24T00:58:02.624Z,76
2022-11-24T01:00:34.901Z,76
2022-11-24T01:03:06.071Z,76
2022-11-24T01:05:36.878Z,76
2022-11-24T01:08:07.948Z,76
2022-11-24T01:10:38.933Z,76
2022-11-24T01:13:10.405Z,76
2022-11-24T01:15:41.879Z,76
2022-11-24T01:18:12.719Z,76
2022-11-24T01:20:43.407Z,76
2022-11-24T01:23:17.240Z,75
2022-11-24T01:25:47.934Z,75
2022-11-24T01:28:18.947Z,76
2022-11-24T01:30:49.508Z,75
2022-11-24T01:33:20.591Z,75
2022-11-24T01:35:51.250Z,76
2022-11-24T01:38:21.668Z,76
2022-11-24T01:40:52.115Z,76
2022-11-24T01:43:23.046Z,76
2022-11-24T01:45:58.408Z,76
2022-11-24T01:48:32.211Z,76
2022-11-24T01:51:04.106Z,76
2022-11-24T01:53:35.025Z,76
2022-11-24T01:56:05.329Z,76
2022-11-24T01:58:38.522Z,76
2022-11-24T02:01:09.518Z,76
2022-11-24T02:03:40.521Z,76
2022-11-24T02:06:11.515Z,76
2022-11-24T02:08:43.165Z,75
2022-11-24T02:11:14.067Z,76
2022-11-24T02:13:44.678Z,75
2022-11-24T02:16:16.568Z,75
2022-11-24T02:18:47.363Z,75
2022-11-24T02:21:18.269Z,75
2022-11-24T02:23:48.057Z,75
2022-11-24T02:26:18.823Z,75
2022-11-24T02:28:50.005Z,75
2022-11-24T02:31:21.204Z,75
2022-11-24T02:33:53.566Z,75
2022-11-24T02:36:24.478Z,75
2022-11-24T02:38:59.180Z,75
2022-11-24T02:41:30.746Z,74
2022-11-24T02:44:02.203Z,74
2022-11-24T02:46:33.467Z,75
2022-11-24T02:49:04.259Z,75
2022-11-24T02:51:36.815Z,75
2022-11-24T02:54:07.715Z,75
2022-11-24T02:56:40.547Z,75
2022-11-24T02:59:13.330Z,75
2022-11-24T03:01:44.787Z,74
2022-11-24T03:04:15.476Z,74
2022-11-24T03:06:46.479Z,74
2022-11-24T03:09:18.001Z,74
2022-11-24T03:11:50.596Z,75
2022-11-24T03:14:21.962Z,75
2022-11-24T03:16:53.440Z,75
2022-11-24T03:19:25.480Z,75
2022-11-24T03:21:56.665Z,76
2022-11-24T03:24:27.520Z,75
2022-11-24T03:26:58.405Z,75
2022-11-24T03:29:29.366Z,75
2022-11-24T03:32:00.491Z,76
2022-11-24T03:34:32.022Z,76
2022-11-24T03:37:03.250Z,76
2022-11-24T03:39:34.494Z,75
2022-11-24T03:42:08.823Z,76
2022-11-24T03:44:39.566Z,76
2022-11-24T03:47:11.031Z,76
2022-11-24T03:49:42.464Z,76
2022-11-24T03:52:13.684Z,76
2022-11-24T03:54:44.740Z,76
2022-11-24T03:57:15.958Z,76
2022-11-24T03:59:49.925Z,76
2022-11-24T04:02:19.667Z,76
2022-11-24T04:04:50.784Z,76
2022-11-24T04:07:21.433Z,75
2022-11-24T04:09:52.225Z,75
2022-11-24T04:12:22.648Z,76
2022-11-24T04:14:53.172Z,75
2022-11-24T04:17:28.901Z,76
2022-11-24T04:19:59.943Z,76
2022-11-24T04:22:30.680Z,76
2022-11-24T04:25:01.866Z,76
2022-11-24T04:27:36.203Z,75
2022-11-24T04:30:09.919Z,75
2022-11-24T04:32:43.931Z,76
2022-11-24T04:35:16.727Z,75
2022-11-24T04:37:47.456Z,75
2022-11-24T04:40:18.516Z,75
2022-11-24T04:42:52.237Z,76
2022-11-24T04:45:25.763Z,76
2022-11-24T04:47:58.695Z,76
2022-11-24T04:50:29.467Z,75
2022-11-24T04:53:00.927Z,74
2022-11-24T04:55:32.271Z,75
2022-11-24T04:58:03.573Z,75
2022-11-24T05:00:34.220Z,75
2022-11-24T05:03:04.648Z,75
2022-11-24T05:05:35.238Z,75
2022-11-24T05:08:06.517Z,76
2022-11-24T05:10:37.515Z,76
2022-11-24T05:13:08.683Z,76
2022-11-24T05:15:42.732Z,76
2022-11-24T05:18:13.349Z,75
2022-11-24T05:20:44.128Z,75
2022-11-24T05:23:15.445Z,75
2022-11-24T05:25:47.730Z,74
2022-11-24T05:28:17.011Z,75
2022-11-24T05:30:48.309Z,75
2022-11-24T05:33:19.412Z,75
2022-11-24T05:35:51.015Z,75
2022-11-24T05:38:22.026Z,75
2022-11-24T05:40:52.653Z,75
2022-11-24T05:43:23.719Z,75
2022-11-24T05:45:55.857Z,75
2022-11-24T05:48:28.932Z,75
2022-11-24T05:51:02.291Z,75
2022-11-24T05:53:31.940Z,75
2022-11-24T05:56:03.206Z,74
2022-11-24T05:58:34.246Z,75
2022-11-24T06:01:04.718Z,74
2022-11-24T06:03:35.456Z,74
2022-11-24T06:06:06.045Z,74
2022-11-24T06:08:37.094Z,74
2022-11-24T06:11:07.469Z,74
2022-11-24T06:13:38.450Z,73
2022-11-24T06:16:08.978Z,74
2022-11-24T06:18:39.679Z,73
2022-11-24T06:21:11.949Z,74
2022-11-24T06:23:41.625Z,73
2022-11-24T06:26:10.537Z,72
2022-11-24T06:28:41.588Z,73
2022-11-24T06:31:11.629Z,73
2022-11-24T06:33:42.029Z,72
2022-11-24T06:36:12.545Z,73
2022-11-24T06:38:43.653Z,72
2022-11-24T06:41:14.874Z,73
2022-11-24T06:43:45.555Z,73
2022-11-24T06:46:16.129Z,72
2022-11-24T06:48:46.799Z,72
2022-11-24T06:51:17.505Z,72
2022-11-24T06:53:48.124Z,71
2022-11-24T06:56:19.243Z,72
2022-11-24T06:58:52.848Z,71
2022-11-24T07:01:24.017Z,71
2022-11-24T07:03:56.658Z,72
2022-11-24T07:06:28.765Z,71
2022-11-24T07:09:01.308Z,71
2022-11-24T07:11:32.304Z,70
2022-11-24T07:14:02.947Z,71
2022-11-24T07:16:39.057Z,72
2022-11-24T07:19:09.003Z,71
2022-11-24T07:21:41.947Z,70
2022-11-24T07:24:15.934Z,70
2022-11-24T07:26:47.506Z,70
2022-11-24T07:29:17.540Z,70
2022-11-24T07:31:48.698Z,69
2022-11-24T07:34:19.482Z,70
2022-11-24T07:36:53.098Z,70
2022-11-24T07:39:24.361Z,70
2022-11-24T07:41:55.461Z,69
2022-11-24T07:44:26.310Z,70
2022-11-24T07:46:56.523Z,70
2022-11-24T07:49:26.910Z,70
2022-11-24T07:51:57.847Z,70
2022-11-24T07:54:28.532Z,70
2022-11-24T07:57:01.676Z,70
2022-11-24T07:59:32.808Z,70
2022-11-24T08:02:02.953Z,70
2022-11-24T08:04:34.864Z,70
2022-11-24T08:07:05.875Z,70
2022-11-24T08:09:36.668Z,70
2022-11-24T08:12:07.293Z,70
2022-11-24T08:14:38.955Z,70
2022-11-24T08:17:09.865Z,70
2022-11-24T08:19:42.330Z,70
2022-11-24T08:22:13.428Z,70
2022-11-24T08:24:45.527Z,70
2022-11-24T08:27:16.582Z,70
2022-11-24T08:29:47.056Z,70
2022-11-24T08:32:22.150Z,70
2022-11-24T08:34:48.055Z,70
2022-11-24T08:37:18.664Z,70
2022-11-24T08:39:49.451Z,70
2022-11-24T08:42:23.292Z,70
2022-11-24T08:44:58.779Z,70
2022-11-24T08:47:24.510Z,70
2022-11-24T08:49:55.410Z,70
2022-11-24T08:52:26.521Z,70
2022-11-24T08:54:57.082Z,70
2022-11-24T08:57:28.559Z,70
2022-11-24T08:59:59.656Z,71
2022-11-24T09:02:30.524Z,71
2022-11-24T09:05:01.207Z,71
2022-11-24T09:07:36.817Z,71
2022-11-24T09:10:08.296Z,71
2022-11-24T09:12:39.487Z,70
2022-11-24T09:15:10.927Z,70
2022-11-24T09:17:41.436Z,71
2022-11-24T09:20:11.705Z,71
2022-11-24T09:22:42.407Z,70
2022-11-24T09:25:13.956Z,70
2022-11-24T09:27:48.105Z,70
2022-11-24T09:30:18.814Z,70
2022-11-24T09:32:50.964Z,70
2022-11-24T09:35:21.462Z,70
2022-11-24T09:37:51.918Z,70
2022-11-24T09:40:22.154Z,70
2022-11-24T09:42:53.755Z,69
2022-11-24T09:45:41.958Z,70
2022-11-24T09:47:53.795Z,70
2022-11-24T09:50:24.037Z,69
2022-11-24T09:52:54.924Z,69
2022-11-24T09:55:26.004Z,70
2022-11-24T09:57:59.459Z,70
2022-11-24T10:00:31.483Z,69
2022-11-24T10:03:05.900Z,69
2022-11-24T10:05:36.352Z,69
2022-11-24T10:08:07.122Z,69
2022-11-24T10:10:37.754Z,69
2022-11-24T10:13:08.022Z,69
2022-11-24T10:15:41.145Z,68
2022-11-24T10:18:16.661Z,68
2022-11-24T10:20:46.912Z,68
2022-11-24T10:23:26.736Z,69
2022-11-24T10:25:57.841Z,68
2022-11-24T10:28:28.812Z,68
2022-11-24T10:30:59.873Z,68
2022-11-24T10:33:31.203Z,68
2022-11-24T10:36:03.840Z,68
2022-11-24T10:38:34.470Z,68
2022-11-24T10:41:04.872Z,68
2022-11-24T10:43:35.580Z,68
2022-11-24T10:46:10.973Z,68
2022-11-24T10:48:43.766Z,68
2022-11-24T10:51:14.776Z,68
2022-11-24T10:53:50.345Z,68
2022-11-24T10:56:21.334Z,68
2022-11-24T10:58:51.728Z,68
2022-11-24T11:01:23.097Z,67
2022-11-24T11:03:53.375Z,68
2022-11-24T11:06:23.639Z,70
2022-11-24T11:08:53.847Z,69
2022-11-24T11:11:24.400Z,69
2022-11-24T11:13:58.428Z,68
2022-11-24T11:16:25.575Z,68
2022-11-24T11:19:25.964Z,68
2022-11-24T11:21:37.406Z,67
2022-11-24T11:24:07.723Z,67
2022-11-24T11:26:38.813Z,67
2022-11-24T11:34:02.641Z,67
2022-11-24T11:34:23.670Z,67
2022-11-24T11:36:47.051Z,67
2022-11-24T11:39:21.539Z,67
2022-11-24T11:41:52.236Z,67
2022-11-24T11:44:22.733Z,67
2022-11-24T11:46:53.590Z,67
2022-11-24T11:49:24.066Z,67
2022-11-24T11:51:54.501Z,67
2022-11-24T11:54:27.562Z,67
2022-11-24T11:56:58.965Z,67
2022-11-24T11:59:29.955Z,68
2022-11-24T12:02:02.640Z,68
2022-11-24T12:04:33.975Z,67
2022-11-24T12:07:04.643Z,67
2022-11-24T12:09:34.978Z,67
2022-11-24T12:12:04.972Z,67
2022-11-24T12:14:37.562Z,67
2022-11-24T12:17:06.375Z,67
2022-11-24T12:19:37.515Z,67
2022-11-24T12:22:07.839Z,66
2022-11-24T12:24:39.137Z,67
2022-11-24T12:27:10.659Z,67
2022-11-24T12:29:42.325Z,67
2022-11-24T12:32:13.144Z,67
2022-11-24T12:34:44.736Z,67
2022-11-24T12:37:15.429Z,67
2022-11-24T12:39:45.902Z,68
2022-11-24T12:42:18.940Z,68
2022-11-24T12:44:49.514Z,67
2022-11-24T12:47:19.941Z,67
2022-11-24T12:49:50.151Z,67
2022-11-24T12:52:20.771Z,67
2022-11-24T12:54:51.669Z,67
2022-11-24T12:57:30.048Z,67
2022-11-24T13:00:00.671Z,67
2022-11-24T13:02:31.565Z,68
2022-11-24T13:05:02.196Z,68
2022-11-24T13:07:32.739Z,69
2022-11-24T13:10:03.832Z,69
2022-11-24T13:12:34.549Z,70
2022-11-24T13:15:06.197Z,70
2022-11-24T13:17:58.334Z,70
2022-11-24T13:20:08.785Z,71
2022-11-24T13:22:39.505Z,70
2022-11-24T13:25:09.768Z,70
2022-11-24T13:27:40.817Z,70
2022-11-24T13:30:11.615Z,69
2022-11-24T13:32:42.192Z,70
2022-11-24T13:35:13.986Z,71
2022-11-24T13:37:46.025Z,71
2022-11-24T13:40:17.260Z,71
2022-11-24T13:42:47.777Z,71
2022-11-24T13:45:18.299Z,71
2022-11-24T13:47:49.159Z,71
2022-11-24T13:50:21.682Z,71
2022-11-24T13:52:51.926Z,70
2022-11-24T13:55:22.901Z,70
2022-11-24T13:57:54.914Z,70
2022-11-24T14:00:26.077Z,71
2022-11-24T14:02:56.976Z,71
2022-11-24T14:05:28.730Z,70
2022-11-24T14:07:59.855Z,70
2022-11-24T14:10:31.122Z,70
2022-11-24T14:13:00.869Z,70
2022-11-24T14:15:36.100Z,70
2022-11-24T14:18:09.239Z,69
2022-11-24T14:20:39.949Z,70
2022-11-24T14:23:10.984Z,70
2022-11-24T14:25:42.732Z,71
2022-11-24T14:28:17.387Z,72
2022-11-24T14:30:47.939Z,73
2022-11-24T14:33:27.867Z,73
2022-11-24T14:35:59.066Z,73
2022-11-24T14:38:30.020Z,71
2022-11-24T14:41:02.034Z,72
2022-11-24T14:43:33.748Z,72
2022-11-24T14:46:05.062Z,73
2022-11-24T14:48:36.255Z,73
2022-11-24T14:51:09.406Z,73
2022-11-24T14:53:39.854Z,73
2022-11-24T14:56:11.075Z,73
2022-11-24T14:58:45.221Z,73
2022-11-24T15:01:16.884Z,72
2022-11-24T15:03:48.484Z,73
2022-11-24T15:06:19.580Z,74
2022-11-24T15:08:51.548Z,74
2022-11-24T15:11:23.365Z,74
2022-11-24T15:13:55.977Z,73
2022-11-24T15:16:27.329Z,73
2022-11-24T15:18:58.782Z,73
2022-11-24T15:21:30.880Z,73
2022-11-24T15:24:01.990Z,73
2022-11-24T15:26:40.157Z,74
2022-11-24T15:29:05.812Z,73
2022-11-24T15:31:47.792Z,74
2022-11-24T15:34:16.968Z,74
2022-11-24T15:36:47.973Z,74
2022-11-24T15:39:20.667Z,74
2022-11-24T15:41:52.289Z,74
2022-11-24T15:44:23.817Z,74
2022-11-24T15:46:55.920Z,74
2022-11-24T15:49:26.869Z,74
2022-11-24T15:52:01.306Z,73
2022-11-24T15:54:33.038Z,73
2022-11-24T15:57:07.283Z,73
2022-11-24T15:59:38.423Z,73
2022-11-24T16:02:12.556Z,73
2022-11-24T16:04:44.967Z,73
2022-11-24T16:07:16.186Z,73
2022-11-24T16:09:49.144Z,73
2022-11-24T16:12:22.602Z,73
2022-11-24T16:14:55.065Z,74
2022-11-24T16:17:28.041Z,74
2022-11-24T16:20:00.656Z,74
2022-11-24T16:22:30.844Z,75
2022-11-24T16:25:02.798Z,74
2022-11-24T16:27:35.094Z,74
2022-11-24T16:30:09.154Z,74
2022-11-24T16:32:40.291Z,74
2022-11-24T16:35:12.112Z,74
2022-11-24T16:37:44.971Z,73
2022-11-24T16:40:19.223Z,74
2022-11-24T16:42:50.787Z,73
2022-11-24T16:45:21.868Z,74
2022-11-24T16:47:52.662Z,74
2022-11-24T16:50:27.144Z,74
2022-11-24T16:52:58.853Z,74
2022-11-24T16:55:30.079Z,74
2022-11-24T16:58:01.157Z,74
2022-11-24T17:00:32.250Z,75
2022-11-24T17:03:03.512Z,75
2022-11-24T17:05:38.290Z,75
2022-11-24T17:08:11.142Z,75
2022-11-24T17:10:42.472Z,74
2022-11-24T17:13:16.121Z,74
2022-11-24T17:15:51.075Z,75
2022-11-24T17:18:25.579Z,75
2022-11-24T17:20:57.346Z,75
2022-11-24T17:23:28.830Z,74
2022-11-24T17:25:59.951Z,74
2022-11-24T17:28:33.239Z,74
2022-11-24T17:31:04.700Z,73
2022-11-24T17:33:38.550Z,73
2022-11-24T17:36:09.731Z,74
2022-11-24T17:38:40.880Z,73
2022-11-24T17:41:12.039Z,74
2022-11-24T17:43:45.975Z,73
2022-11-24T17:46:17.506Z,72
2022-11-24T17:48:49.519Z,73
2022-11-24T17:51:20.403Z,73
2022-11-24T17:53:51.452Z,73
2022-11-24T17:56:22.954Z,72
2022-11-24T17:58:54.336Z,72
2022-11-24T18:01:27.308Z,72
2022-11-24T18:03:59.543Z,72
2022-11-24T18:06:31.134Z,72
2022-11-24T18:09:06.405Z,72
2022-11-24T18:11:46.721Z,71
2022-11-24T18:14:17.717Z,71
2022-11-24T18:16:49.905Z,71
2022-11-24T18:19:21.266Z,71
2022-11-24T18:21:52.963Z,71
2022-11-24T18:24:24.478Z,70
2022-11-24T18:26:59.754Z,70
2022-11-24T18:29:30.779Z,70
2022-11-24T18:32:06.086Z,70
2022-11-24T18:34:37.673Z,69
2022-11-24T18:37:08.673Z,69
2022-11-24T18:39:45.010Z,69
2022-11-24T18:42:21.253Z,70
2022-11-24T18:44:54.228Z,70
2022-11-24T18:47:24.980Z,70
2022-11-24T18:49:56.409Z,70
2022-11-24T18:52:29.676Z,70
2022-11-24T18:55:02.465Z,70
2022-11-24T18:57:33.365Z,70
2022-11-24T19:00:04.896Z,70
2022-11-24T19:02:38.200Z,70
2022-11-24T19:05:09.719Z,70
2022-11-24T19:07:41.457Z,71
2022-11-24T19:10:12.702Z,72
2022-11-24T19:12:44.633Z,71
2022-11-24T19:15:15.812Z,71
2022-11-24T19:17:47.468Z,71
2022-11-24T19:20:16.850Z,71
2022-11-24T19:22:47.670Z,71
2022-11-24T19:25:18.248Z,71
2022-11-24T19:27:50.364Z,71
2022-11-24T19:30:22.430Z,72
2022-11-24T19:32:53.413Z,71
2022-11-24T19:35:27.730Z,72
2022-11-24T19:38:03.863Z,72
2022-11-24T19:40:34.569Z,73
2022-11-24T19:43:05.494Z,72
2022-11-24T19:45:37.048Z,73
2022-11-24T19:48:08.243Z,73
2022-11-24T19:50:43.712Z,72
2022-11-24T19:53:15.560Z,71
2022-11-24T19:55:55.745Z,72
2022-11-24T19:58:26.708Z,72
2022-11-24T20:01:01.315Z,72
2022-11-24T20:03:32.665Z,72
2022-11-24T20:06:04.199Z,72
2022-11-24T20:08:36.682Z,72
2022-11-24T20:11:08.551Z,73
2022-11-24T20:13:39.431Z,72
2022-11-24T20:16:10.737Z,73
2022-11-24T20:18:42.521Z,72
2022-11-24T20:21:13.687Z,73
2022-11-24T20:23:44.662Z,73
2022-11-24T20:26:16.882Z,73
2022-11-24T20:28:51.593Z,73
2022-11-24T20:31:22.548Z,73
2022-11-24T20:33:54.265Z,73
2022-11-24T20:36:26.634Z,73
2022-11-24T20:38:59.339Z,73
2022-11-24T20:41:31.021Z,73
2022-11-24T20:44:02.231Z,72
2022-11-24T20:46:33.389Z,72
2022-11-24T20:49:04.365Z,71
2022-11-24T20:51:35.632Z,71
2022-11-24T20:54:07.783Z,72
2022-11-24T20:56:39.550Z,71
2022-11-24T20:59:10.829Z,72
2022-11-24T21:01:42.667Z,71
2022-11-24T21:04:15.007Z,71
2022-11-24T21:06:46.054Z,71
2022-11-24T21:09:17.060Z,71
2022-11-24T21:11:48.276Z,72
2022-11-24T21:14:19.611Z,72
2022-11-24T21:16:50.859Z,72
2022-11-24T21:19:22.159Z,72
2022-11-24T21:21:54.527Z,71
2022-11-24T21:24:25.890Z,72
2022-11-24T21:26:56.980Z,72
2022-11-24T21:29:28.655Z,71
2022-11-24T21:32:00.532Z,71
2022-11-24T21:34:33.169Z,71
2022-11-24T21:37:04.464Z,71
2022-11-24T21:39:36.108Z,72
2022-11-24T21:42:07.463Z,72
2022-11-24T21:44:38.801Z,72
2022-11-24T21:47:09.907Z,71
2022-11-24T21:49:41.425Z,71
2022-11-24T21:52:13.682Z,71
2022-11-24T21:54:45.149Z,71
2022-11-24T21:57:16.517Z,71
2022-11-24T21:59:47.660Z,71
2022-11-24T22:02:18.723Z,71
2022-11-24T22:04:51.446Z,71
2022-11-24T22:07:22.887Z,71
2022-11-24T22:09:54.255Z,71
2022-11-24T22:12:25.237Z,71
2022-11-24T22:14:56.503Z,71
2022-11-24T22:17:27.719Z,72
2022-11-24T22:20:03.917Z,72
2022-11-24T22:22:35.265Z,72
2022-11-24T22:25:06.430Z,71
2022-11-24T22:27:37.481Z,71
2022-11-24T22:30:08.499Z,72
2022-11-24T22:32:40.099Z,72
2022-11-24T22:35:11.789Z,72
2022-11-24T22:37:43.756Z,71
2022-11-24T22:40:15.068Z,71
2022-11-24T22:42:46.691Z,71
2022-11-24T22:45:17.868Z,71
2022-11-24T22:47:48.930Z,71
2022-11-24T22:50:20.163Z,71
2022-11-24T22:52:51.553Z,71
2022-11-24T22:55:22.420Z,71
2022-11-24T22:57:56.896Z,71
2022-11-24T23:00:24.560Z,72
2022-11-24T23:02:55.688Z,71
2022-11-24T23:05:26.962Z,71
2022-11-24T23:07:58.440Z,72
2022-11-24T23:10:29.948Z,71
2022-11-24T23:13:00.487Z,72
2022-11-24T23:15:31.842Z,72
2022-11-24T23:18:02.620Z,72
2022-11-24T23:20:33.241Z,72
2022-11-24T23:23:03.608Z,71
2022-11-24T23:25:34.520Z,71
2022-11-24T23:28:05.742Z,72
2022-11-24T23:30:36.821Z,72
2022-11-24T23:33:07.437Z,71
2022-11-24T23:35:37.918Z,72
2022-11-24T23:38:08.481Z,72
2022-11-24T23:40:39.153Z,71
2022-11-24T23:43:10.327Z,72
2022-11-24T23:45:41.386Z,72
2022-11-24T23:48:13.505Z,71
2022-11-24T23:50:44.235Z,72
2022-11-24T23:53:15.592Z,72
2022-11-24T23:55:44.405Z,73
2022-11-24T23:58:15.642Z,73
